NCAR-RAP Real-Time Weather Data

Output produced by METARs form (18 August 2018  01:01 UTC)
found at http://weather.rap.ucar.edu/surface/
 
RJGG 180030Z 30005KT 230V340 9999 FEW020 SCT050 BKN/// 26/18 Q1012 BECMG 16008KT
RJGG 180000Z 31004KT 250V350 9999 FEW020 BKN/// 24/16 Q1012 BECMG 14006KT
RJGG 172330Z 33008KT 9999 FEW020 BKN/// 25/16 Q1012 NOSIG
RJGG 172300Z 36005KT 330V040 9999 FEW020 BKN/// 24/16 Q1012 NOSIG
RJGG 172230Z 35009KT 9999 FEW020 BKN/// 24/15 Q1012 NOSIG
RJGG 172200Z 35010KT 9999 FEW020 BKN/// 23/15 Q1012 NOSIG
RJGG 172130Z 34011KT 9999 FEW020 BKN/// 23/16 Q1012 NOSIG
RJGG 172100Z 35010KT 9999 FEW020 SCT040 BKN/// 22/15 Q1011 NOSIG
RJGG 172030Z 35010KT 9999 FEW015 BKN035 22/15 Q1011 NOSIG
RJGG 172000Z 35009KT 9999 FEW015 BKN035 22/15 Q1011 NOSIG
RJGG 171930Z 35011KT 9999 FEW015 21/15 Q1011 NOSIG
RJGG 171900Z 35011KT 9999 FEW020 SCT040 22/15 Q1010 NOSIG
RJGG 171830Z 35011KT 9999 FEW015 BKN035 22/14 Q1010 NOSIG
RJGG 171800Z 35012KT 9999 FEW015 SCT040 22/15 Q1010 NOSIG
RJGG 171730Z 35012KT 9999 FEW015 SCT070 22/14 Q1010 NOSIG
RJGG 171700Z 35013KT 9999 FEW015 SCT070 22/15 Q1010 NOSIG
RJGG 171630Z 35015KT 9999 FEW015 BKN/// 22/15 Q1010 NOSIG
RJGG 171600Z 35016KT 9999 FEW025 23/14 Q1010 NOSIG
RJGG 171530Z 36016KT 9999 FEW025 23/14 Q1010 NOSIG
RJGG 171500Z 35017KT 9999 FEW025 23/14 Q1010 NOSIG
RJGG 171430Z 35015KT 9999 FEW025 SCT/// 23/15 Q1010 NOSIG
RJGG 171400Z 36016KT 9999 FEW025 SCT/// 24/15 Q1010 NOSIG
RJGG 171330Z 35013KT 9999 FEW025 BKN/// 24/16 Q1010 NOSIG
RJGG 171300Z 34012KT 9999 FEW015 BKN/// 24/17 Q1010 NOSIG
RJGG 171230Z 33015KT 9999 FEW015 BKN/// 25/18 Q1010 NOSIG
RJGG 171200Z 32016KT 9999 FEW015 BKN/// 25/18 Q1010 NOSIG
RJGG 171130Z 32017KT 9999 FEW015 BKN/// 25/17 Q1009 NOSIG
RJGG 171100Z 32016KT 9999 FEW015 BKN/// 25/18 Q1009 NOSIG
RJGG 171030Z 32015KT 9999 FEW015 BKN/// 26/17 Q1008 NOSIG
RJGG 171000Z 31016KT 9999 FEW015 BKN/// 26/17 Q1008 NOSIG
RJGG 170930Z 30016KT 9999 FEW015 BKN/// 27/18 Q1007 NOSIG
RJGG 170900Z 30016KT 9999 FEW025 BKN/// 27/17 Q1007 NOSIG
RJGG 170830Z 32014KT 9999 FEW025 BKN/// 28/17 Q1007 NOSIG
RJGG 170800Z 31015KT 9999 FEW025 BKN/// 28/16 Q1007 NOSIG
RJGG 170730Z 31016KT 9999 FEW025 BKN/// 28/16 Q1006 NOSIG
RJGG 170700Z 30014KT 9999 FEW025 BKN/// 29/16 Q1006 NOSIG
RJGG 170630Z 31017KT 9999 FEW025 BKN/// 29/16 Q1006 NOSIG
RJGG 170600Z 32016KT 9999 FEW025 BKN/// 29/16 Q1006 NOSIG
RJGG 170530Z 32017KT 9999 FEW025 BKN/// 29/16 Q1006 NOSIG
RJGG 170500Z 32017KT 9999 FEW025 BKN/// 29/16 Q1007 NOSIG
RJGG 170430Z 32018KT 9999 FEW025 BKN/// 29/17 Q1007 NOSIG
RJGG 170400Z 33018KT 9999 FEW025 BKN/// 29/15 Q1007 NOSIG
RJGG 170330Z 33018KT 9999 FEW020 BKN/// 29/15 Q1007 NOSIG
RJGG 170300Z 33022KT 9999 FEW020 SCT/// 28/15 Q1008 NOSIG
RJGG 170230Z 34021KT 9999 FEW020 SCT/// 29/16 Q1008 NOSIG
RJGG 170200Z 33020KT 9999 FEW020 SCT/// 28/15 Q1008 NOSIG
RJGG 170130Z 33018KT 9999 FEW020 SCT/// 28/15 Q1008 NOSIG
RJGG 170100Z 33020KT 9999 FEW020 27/15 Q1009 NOSIG
RJGG 170030Z 34020KT 9999 FEW020 27/14 Q1009 NOSIG
RJGG 170000Z 33022KT 9999 FEW020 27/15 Q1008 NOSIG
RJGG 162330Z 33022KT 9999 FEW020 27/16 Q1008 NOSIG
RJGG 162300Z 33020KT 9999 FEW020 26/16 Q1008 NOSIG
RJGG 162230Z 33022KT 9999 FEW020 26/16 Q1008 NOSIG
RJGG 162200Z 32021KT 9999 FEW020 26/17 Q1008 NOSIG
RJGG 162130Z 32024KT 9999 FEW020 25/18 Q1008 NOSIG
RJGG 162100Z 32023KT 9999 FEW020 25/18 Q1008 NOSIG
RJGG 162030Z 31022KT 9999 FEW020 SCT/// 25/18 Q1007 NOSIG
RJGG 162000Z 32022KT 9999 FEW020 BKN/// 25/19 Q1007 NOSIG
RJGG 161930Z 32026KT 9999 FEW020 BKN/// 25/18 Q1007 NOSIG
RJGG 161900Z 32022KT 9999 FEW020 BKN/// 25/18 Q1007 NOSIG
RJGG 161830Z 31024KT 9999 FEW020 BKN/// 26/18 Q1007 NOSIG
RJGG 161800Z 31025KT 9999 FEW020 BKN/// 26/18 Q1007 NOSIG
RJGG 161730Z 32025KT 9999 FEW020 BKN/// 26/18 Q1007 NOSIG
RJGG 161700Z 31022KT 9999 FEW020 BKN/// 26/19 Q1007 NOSIG
RJGG 161630Z 31019KT 9999 FEW020 BKN/// 27/19 Q1008 NOSIG
RJGG 161600Z 31023KT 9999 FEW020 SCT150 BKN/// 27/20 Q1007 NOSIG
RJGG 161530Z 31025KT 9999 FEW020 SCT150 BKN/// 27/21 Q1007 NOSIG
RJGG 161500Z 30023KT 9999 FEW020 SCT150 BKN/// 27/20 Q1008 NOSIG
RJGG 161430Z 31021KT 9999 FEW020 SCT150 BKN/// 27/21 Q1007 NOSIG
RJGG 161400Z 31022KT 9999 FEW015 SCT150 BKN/// 28/21 Q1007 NOSIG
RJGG 161330Z 30024KT 9999 FEW015 SCT150 BKN/// 28/22 Q1007 NOSIG
RJGG 161300Z 30021KT 9999 FEW015 SCT140 BKN/// 28/22 Q1007 NOSIG
RJGG 161230Z 30020KT 9999 FEW015 SCT140 BKN/// 28/23 Q1007 NOSIG
RJGG 161200Z 31019KT 9999 FEW015 SCT140 BKN/// 28/23 Q1007 NOSIG
RJGG 161130Z 31020KT 9999 FEW015 SCT080 BKN/// 29/23 Q1007 NOSIG
RJGG 161100Z 27018KT 9999 FEW015 SCT040 BKN/// 29/24 Q1006 NOSIG
RJGG 161030Z 26017KT 9999 FEW015 SCT050 BKN/// 29/24 Q1006 BECMG 28016KT
RJGG 161000Z 25014KT 9999 FEW015 BKN/// 30/24 Q1006 BECMG 28016KT
RJGG 160930Z 22008KT 9999 FEW010 SCT070 BKN/// 29/25 Q1006 BECMG 28010KT
RJGG 160900Z 23009KT 9999 VCSH FEW010 SCT040 BKN110 29/25 Q1006 BECMG TL0930 28010KT
RJGG 160830Z 19005KT 9999 -SHRA FEW010 SCT040 BKN070 29/26 Q1006 BECMG TL0900 28010KT
RJGG 160800Z 20003KT 9999 -SHRA FEW010 SCT040 BKN060 29/27 Q1005 NOSIG
RJGG 160730Z VRB01KT 9999 FEW010 SCT060 BKN170 29/26 Q1005 BECMG 24005KT
RJGG 160700Z 18006KT 9999 FEW015 SCT040 BKN160 29/26 Q1006 NOSIG
RJGG 160630Z 19004KT 9999 FEW015 SCT040 BKN160 29/25 Q1006 NOSIG
RJGG 160600Z 17003KT 9999 FEW015 SCT045 BKN160 29/25 Q1006 NOSIG
RJGG 160530Z 19005KT 9999 -SHRA FEW015 SCT035 BKN160 29/26 Q1006 NOSIG
RJGG 160500Z 16008KT 9999 VCSH FEW010 FEW020CB SCT050 BKN/// 29/25 Q1006 TEMPO 4000 -TSRA BR
RJGG 160430Z 16008KT 9999 VCSH FEW010 FEW020CB SCT170 BKN/// 31/25 Q1007 TEMPO 4000 -TSRA BR
RJGG 160400Z 17008KT 9999 FEW015 FEW020CB SCT100 BKN160 30/25 Q1007 NOSIG
RJGG 160330Z 17008KT 9999 FEW020 SCT100 BKN160 30/25 Q1008 NOSIG
RJGG 160300Z 18009KT 9999 FEW020 BKN100 BKN160 29/25 Q1008 NOSIG
RJGG 160230Z 18007KT 9999 FEW020 BKN100 BKN/// 29/25 Q1008 NOSIG
RJGG 160200Z 17007KT 9999 VCSH FEW015 SCT045 BKN100 28/26 Q1009 NOSIG
RJGG 160130Z 19006KT 9999 -SHRA FEW015 SCT030 BKN100 28/25 Q1009 NOSIG
RJGG 160100Z 19006KT 9999 VCSH FEW015 BKN100 BKN/// 28/25 Q1009 NOSIG
RJGG 160030Z 20007KT 9999 FEW015 BKN100 BKN/// 28/25 Q1009 NOSIG
RJGG 160000Z 19008KT 9999 FEW015 SCT090 BKN/// 28/26 Q1009 NOSIG
RJGG 152330Z 17009KT 9999 FEW015 SCT025 BKN/// 28/26 Q1009 NOSIG
RJGG 152300Z 17010KT 9999 FEW015 SCT025 BKN/// 28/25 Q1009 NOSIG
RJGG 152230Z 18011KT 9999 FEW010 SCT020 BKN/// 27/25 Q1009 NOSIG
RJGG 152200Z 17011KT 9999 FEW006 SCT012 BKN020 27/25 Q1009 TEMPO FEW006 BKN012
RJGG 152130Z 17012KT 9999 VCSH FEW010 SCT025 BKN/// 27/25 Q1009 NOSIG
RJGG 152100Z 16011KT 9999 VCSH FEW015 SCT030 BKN060 27/25 Q1009 NOSIG
RJGG 152030Z 14010KT 9999 VCSH FEW020 SCT060 BKN/// 27/25 Q1009 NOSIG
RJGG 152000Z 14009KT 9999 FEW020 SCT/// 27/25 Q1009 NOSIG
RJGG 151930Z 13010KT 9999 FEW020 SCT/// 27/25 Q1009 NOSIG
RJGG 151900Z 14011KT 9999 FEW020 BKN/// 27/25 Q1009 NOSIG
RJGG 151830Z 14011KT 9999 FEW020 BKN/// 27/25 Q1009 NOSIG
RJGG 151800Z 13010KT 9999 VCSH FEW020 BKN/// 27/25 Q1009 NOSIG
RJGG 151730Z 14009KT 9999 FEW020 BKN/// 27/25 Q1010 NOSIG
RJGG 151700Z 13009KT 9999 FEW020 BKN/// 27/25 Q1010 NOSIG
RJGG 151630Z 14009KT 9999 FEW020 BKN/// 27/25 Q1010 NOSIG
RJGG 151600Z 14009KT 9999 FEW020 SCT170 BKN/// 27/25 Q1011 NOSIG
RJGG 151530Z 14008KT 9999 FEW020 BKN/// 27/25 Q1011 NOSIG
RJGG 151500Z 13010KT 9999 FEW020 BKN/// 27/25 Q1011 NOSIG
RJGG 151430Z 13011KT 9999 FEW020 BKN/// 27/25 Q1011 NOSIG
RJGG 151400Z 13011KT 9999 FEW020 BKN/// 27/26 Q1012 NOSIG
RJGG 151330Z 13011KT 9999 FEW020 BKN180 27/26 Q1012 NOSIG